KDDC/DDC METAR and TAF weather

Enter ICAO airport designator
Station Type Date Time Source
KDDC METAR 2021/09/23 17:52 UTC NOAA

KDDC 231752Z AUTO 20016G27KT 10SM CLR 27/03 A3001 RMK AO2 PK WND 22029/1700 SLP140 T02720028 10272 20128 58015


Station Type Date Time Source
KDDC Decoded METAR 2021/09/23 17:52 UTC NOAA

DODGE CITY REGIONAL AIRPORT, KS, United States (KDDC) 37-46N 99-58W 789M
Sep 23, 2021 - 01:52 PM EDT / 2021.09.23 1752 UTC
Wind: from the SSW (200 degrees) at 18 MPH (16 KT) gusting to 31 MPH (27 KT):0
Visibility: 10 mile(s):0
Sky conditions: clear
Temperature: 81.0 F (27.2 C)
Dew Point: 37.0 F (2.8 C)
Relative Humidity: 20%
Pressure (altimeter): 30.01 in. Hg (1016 hPa)
Pressure tendency: 0.04 inches (1.5 hPa) lower than three hours ago
ob: KDDC 231752Z AUTO 20016G27KT 10SM CLR 27/03 A3001 RMK AO2 PK WND 22029/1700 SLP140 T02720028 10272 20128 58015
cycle: 18

Station Type Date Time Source
KDDC TAF 2021/09/23 18:22 UTC NOAA

TAF KDDC 231720Z 2318/2418 21015G25KT P6SM SKC
FM240000 22010KT P6SM BKN250

Example: see airport list